sensor_id;sensor_type;location;lat;lon;timestamp;temperature;humidity
4813;DHT22;2420;51.202;8.698;2023-03-02T00:01:10;-0.30;1.00
4813;DHT22;2420;51.202;8.698;2023-03-02T00:03:37;-0.30;1.00
4813;DHT22;2420;51.202;8.698;2023-03-02T00:06:05;-0.20;1.00
4813;DHT22;2420;51.202;8.698;2023-03-02T00:08:32;-0.40;1.00
4813;DHT22;2420;51.202;8.698;2023-03-02T00:10:59;-0.40;1.00
4813;DHT22;2420;51.202;8.698;2023-03-02T00:13:28;-0.30;1.00
4813;DHT22;2420;51.202;8.698;2023-03-02T00:15:53;-0.20;1.00
4813;DHT22;2420;51.202;8.698;2023-03-02T00:18:19;-0.30;1.00
4813;DHT22;2420;51.202;8.698;2023-03-02T00:20:45;-0.60;1.00
4813;DHT22;2420;51.202;8.698;2023-03-02T00:23:10;-0.60;1.00
4813;DHT22;2420;51.202;8.698;2023-03-02T00:25:36;-0.40;1.00
4813;DHT22;2420;51.202;8.698;2023-03-02T00:28:01;-0.40;1.00
4813;DHT22;2420;51.202;8.698;2023-03-02T00:30:27;-0.30;1.00
4813;DHT22;2420;51.202;8.698;2023-03-02T00:32:52;-0.60;1.00
4813;DHT22;2420;51.202;8.698;2023-03-02T00:35:18;-0.50;1.00
4813;DHT22;2420;51.202;8.698;2023-03-02T00:37:43;-0.40;1.00
4813;DHT22;2420;51.202;8.698;2023-03-02T00:40:09;-0.60;1.00
4813;DHT22;2420;51.202;8.698;2023-03-02T00:42:36;-0.40;1.00
4813;DHT22;2420;51.202;8.698;2023-03-02T00:45:05;-0.80;1.00
4813;DHT22;2420;51.202;8.698;2023-03-02T00:47:35;-0.70;1.00
4813;DHT22;2420;51.202;8.698;2023-03-02T00:50:01;-0.70;1.00
4813;DHT22;2420;51.202;8.698;2023-03-02T00:52:28;-1.00;1.00
4813;DHT22;2420;51.202;8.698;2023-03-02T00:54:57;-1.10;1.00
4813;DHT22;2420;51.202;8.698;2023-03-02T00:57:22;-1.00;1.00
4813;DHT22;2420;51.202;8.698;2023-03-02T00:59:48;-1.10;1.00
4813;DHT22;2420;51.202;8.698;2023-03-02T01:02:14;-1.00;1.00
4813;DHT22;2420;51.202;8.698;2023-03-02T01:04:41;-1.10;1.00
4813;DHT22;2420;51.202;8.698;2023-03-02T01:07:10;-1.10;1.00
4813;DHT22;2420;51.202;8.698;2023-03-02T01:09:36;-1.20;1.00
4813;DHT22;2420;51.202;8.698;2023-03-02T01:12:03;-1.30;1.00
4813;DHT22;2420;51.202;8.698;2023-03-02T01:14:30;-1.00;1.00
4813;DHT22;2420;51.202;8.698;2023-03-02T01:16:56;-0.90;1.00
4813;DHT22;2420;51.202;8.698;2023-03-02T01:19:21;-1.00;1.00
4813;DHT22;2420;51.202;8.698;2023-03-02T01:21:47;-1.10;1.00
4813;DHT22;2420;51.202;8.698;2023-03-02T01:24:13;-1.20;1.00
4813;DHT22;2420;51.202;8.698;2023-03-02T01:26:41;-1.20;1.00
4813;DHT22;2420;51.202;8.698;2023-03-02T01:29:06;-1.30;1.00
4813;DHT22;2420;51.202;8.698;2023-03-02T01:31:32;-1.30;1.00
4813;DHT22;2420;51.202;8.698;2023-03-02T01:33:57;-1.30;1.00
4813;DHT22;2420;51.202;8.698;2023-03-02T01:36:23;-1.50;1.00
4813;DHT22;2420;51.202;8.698;2023-03-02T01:38:49;-1.60;1.00
4813;DHT22;2420;51.202;8.698;2023-03-02T01:41:16;-1.40;1.00
4813;DHT22;2420;51.202;8.698;2023-03-02T01:43:41;-1.20;1.00
4813;DHT22;2420;51.202;8.698;2023-03-02T01:46:13;-1.20;1.00
4813;DHT22;2420;51.202;8.698;2023-03-02T01:51:16;-1.30;1.00
4813;DHT22;2420;51.202;8.698;2023-03-02T01:53:43;-1.10;1.00
4813;DHT22;2420;51.202;8.698;2023-03-02T01:56:22;-1.20;1.00
4813;DHT22;2420;51.202;8.698;2023-03-02T01:58:52;-1.10;1.00
4813;DHT22;2420;51.202;8.698;2023-03-02T02:01:20;-1.30;1.00
4813;DHT22;2420;51.202;8.698;2023-03-02T02:03:48;-1.10;1.00
4813;DHT22;2420;51.202;8.698;2023-03-02T02:06:30;-1.20;1.00
4813;DHT22;2420;51.202;8.698;2023-03-02T02:09:00;-1.20;1.00
4813;DHT22;2420;51.202;8.698;2023-03-02T02:11:27;-1.10;1.00
4813;DHT22;2420;51.202;8.698;2023-03-02T02:13:55;-1.10;1.00
4813;DHT22;2420;51.202;8.698;2023-03-02T02:16:22;-1.50;1.00
4813;DHT22;2420;51.202;8.698;2023-03-02T02:18:47;-1.50;1.00
4813;DHT22;2420;51.202;8.698;2023-03-02T02:21:13;-1.20;1.00
4813;DHT22;2420;51.202;8.698;2023-03-02T02:23:47;-1.50;1.00
4813;DHT22;2420;51.202;8.698;2023-03-02T02:26:33;-1.60;1.00
4813;DHT22;2420;51.202;8.698;2023-03-02T02:29:30;-1.40;1.00
4813;DHT22;2420;51.202;8.698;2023-03-02T02:32:18;-1.10;1.00
4813;DHT22;2420;51.202;8.698;2023-03-02T02:37:21;-1.30;1.00
4813;DHT22;2420;51.202;8.698;2023-03-02T02:39:48;-1.30;1.00
4813;DHT22;2420;51.202;8.698;2023-03-02T02:42:26;-1.40;1.00
4813;DHT22;2420;51.202;8.698;2023-03-02T02:44:59;-1.20;1.00
4813;DHT22;2420;51.202;8.698;2023-03-02T02:47:25;-1.20;1.00
4813;DHT22;2420;51.202;8.698;2023-03-02T02:49:53;-1.20;1.00
4813;DHT22;2420;51.202;8.698;2023-03-02T02:52:21;-1.10;1.00
4813;DHT22;2420;51.202;8.698;2023-03-02T02:54:50;-1.10;1.00
4813;DHT22;2420;51.202;8.698;2023-03-02T02:57:18;-1.30;1.00
4813;DHT22;2420;51.202;8.698;2023-03-02T02:59:47;-1.10;1.00
4813;DHT22;2420;51.202;8.698;2023-03-02T03:02:18;-1.30;1.00
4813;DHT22;2420;51.202;8.698;2023-03-02T03:04:45;-1.40;1.00
4813;DHT22;2420;51.202;8.698;2023-03-02T03:07:20;-1.50;1.00
4813;DHT22;2420;51.202;8.698;2023-03-02T03:09:50;-1.20;1.00
4813;DHT22;2420;51.202;8.698;2023-03-02T03:12:21;-1.20;1.00
4813;DHT22;2420;51.202;8.698;2023-03-02T03:14:47;-1.00;1.00
4813;DHT22;2420;51.202;8.698;2023-03-02T03:17:13;-1.20;1.00
4813;DHT22;2420;51.202;8.698;2023-03-02T03:19:41;-1.50;1.00
4813;DHT22;2420;51.202;8.698;2023-03-02T03:22:07;-1.20;1.00
4813;DHT22;2420;51.202;8.698;2023-03-02T03:24:36;-1.30;1.00
4813;DHT22;2420;51.202;8.698;2023-03-02T03:27:03;-1.30;1.00
4813;DHT22;2420;51.202;8.698;2023-03-02T03:29:31;-1.30;1.00
4813;DHT22;2420;51.202;8.698;2023-03-02T03:31:58;-1.50;1.00
4813;DHT22;2420;51.202;8.698;2023-03-02T03:34:25;-1.30;1.00
4813;DHT22;2420;51.202;8.698;2023-03-02T03:36:51;-1.30;1.00
4813;DHT22;2420;51.202;8.698;2023-03-02T03:39:17;-1.50;1.00
4813;DHT22;2420;51.202;8.698;2023-03-02T03:41:43;-1.40;1.00
4813;DHT22;2420;51.202;8.698;2023-03-02T03:44:10;-1.70;1.00
4813;DHT22;2420;51.202;8.698;2023-03-02T03:46:36;-1.70;1.00
4813;DHT22;2420;51.202;8.698;2023-03-02T03:49:01;-1.70;1.00
4813;DHT22;2420;51.202;8.698;2023-03-02T03:51:27;-1.70;1.00
4813;DHT22;2420;51.202;8.698;2023-03-02T03:53:54;-1.70;1.00
4813;DHT22;2420;51.202;8.698;2023-03-02T03:56:31;-1.80;1.00
4813;DHT22;2420;51.202;8.698;2023-03-02T03:58:58;-1.80;1.00
4813;DHT22;2420;51.202;8.698;2023-03-02T04:04:04;-1.80;1.00
4813;DHT22;2420;51.202;8.698;2023-03-02T04:06:30;-1.90;1.00
4813;DHT22;2420;51.202;8.698;2023-03-02T04:08:56;-1.80;1.00
4813;DHT22;2420;51.202;8.698;2023-03-02T04:11:21;-1.90;1.00
4813;DHT22;2420;51.202;8.698;2023-03-02T04:13:47;-1.70;1.00
4813;DHT22;2420;51.202;8.698;2023-03-02T04:16:14;-1.70;1.00
4813;DHT22;2420;51.202;8.698;2023-03-02T04:18:39;-1.80;1.00
4813;DHT22;2420;51.202;8.698;2023-03-02T04:21:05;-1.70;1.00
4813;DHT22;2420;51.202;8.698;2023-03-02T04:23:30;-1.70;1.00
4813;DHT22;2420;51.202;8.698;2023-03-02T04:25:56;-1.70;1.00
4813;DHT22;2420;51.202;8.698;2023-03-02T04:28:21;-1.60;1.00
4813;DHT22;2420;51.202;8.698;2023-03-02T04:30:47;-1.70;1.00
4813;DHT22;2420;51.202;8.698;2023-03-02T04:33:12;-1.60;1.00
4813;DHT22;2420;51.202;8.698;2023-03-02T04:35:38;-1.50;1.00
4813;DHT22;2420;51.202;8.698;2023-03-02T04:38:04;-1.60;1.00
4813;DHT22;2420;51.202;8.698;2023-03-02T04:40:29;-1.50;1.00
4813;DHT22;2420;51.202;8.698;2023-03-02T04:42:55;-1.70;1.00
4813;DHT22;2420;51.202;8.698;2023-03-02T04:45:20;-1.60;1.00
4813;DHT22;2420;51.202;8.698;2023-03-02T04:47:46;-1.70;1.00
4813;DHT22;2420;51.202;8.698;2023-03-02T04:50:13;-1.70;1.00
4813;DHT22;2420;51.202;8.698;2023-03-02T04:52:39;-1.50;1.00
4813;DHT22;2420;51.202;8.698;2023-03-02T04:55:05;-1.60;1.00
4813;DHT22;2420;51.202;8.698;2023-03-02T04:57:31;-1.40;1.00
4813;DHT22;2420;51.202;8.698;2023-03-02T04:59:57;-1.40;1.00
4813;DHT22;2420;51.202;8.698;2023-03-02T05:02:23;-1.50;1.00
4813;DHT22;2420;51.202;8.698;2023-03-02T05:04:48;-1.50;1.00
4813;DHT22;2420;51.202;8.698;2023-03-02T05:07:14;-1.60;1.00
4813;DHT22;2420;51.202;8.698;2023-03-02T05:09:39;-1.50;1.00
4813;DHT22;2420;51.202;8.698;2023-03-02T05:12:05;-1.60;1.00
4813;DHT22;2420;51.202;8.698;2023-03-02T05:14:31;-1.70;1.00
4813;DHT22;2420;51.202;8.698;2023-03-02T05:16:57;-1.60;1.00
4813;DHT22;2420;51.202;8.698;2023-03-02T05:19:23;-1.60;1.00
4813;DHT22;2420;51.202;8.698;2023-03-02T05:21:48;-1.50;1.00
4813;DHT22;2420;51.202;8.698;2023-03-02T05:24:14;-1.60;1.00
4813;DHT22;2420;51.202;8.698;2023-03-02T05:26:40;-1.40;1.00
4813;DHT22;2420;51.202;8.698;2023-03-02T05:29:06;-1.80;1.00
4813;DHT22;2420;51.202;8.698;2023-03-02T05:31:40;-1.60;1.00
4813;DHT22;2420;51.202;8.698;2023-03-02T05:34:08;-1.80;1.00
4813;DHT22;2420;51.202;8.698;2023-03-02T05:36:35;-1.60;1.00
4813;DHT22;2420;51.202;8.698;2023-03-02T05:39:01;-1.40;1.00
4813;DHT22;2420;51.202;8.698;2023-03-02T05:41:27;-1.50;1.00
4813;DHT22;2420;51.202;8.698;2023-03-02T05:43:53;-1.20;1.00
4813;DHT22;2420;51.202;8.698;2023-03-02T05:46:18;-1.20;1.00
4813;DHT22;2420;51.202;8.698;2023-03-02T05:48:44;-1.40;1.00
4813;DHT22;2420;51.202;8.698;2023-03-02T05:51:11;-1.20;1.00
4813;DHT22;2420;51.202;8.698;2023-03-02T05:53:36;-1.50;1.00
4813;DHT22;2420;51.202;8.698;2023-03-02T05:56:02;-1.60;1.00
4813;DHT22;2420;51.202;8.698;2023-03-02T05:58:28;-1.50;1.00
4813;DHT22;2420;51.202;8.698;2023-03-02T06:00:54;-1.50;1.00
4813;DHT22;2420;51.202;8.698;2023-03-02T06:03:20;-1.40;1.00
4813;DHT22;2420;51.202;8.698;2023-03-02T06:05:45;-1.40;1.00
4813;DHT22;2420;51.202;8.698;2023-03-02T06:08:15;-1.20;1.00
4813;DHT22;2420;51.202;8.698;2023-03-02T06:10:42;-1.30;1.00
4813;DHT22;2420;51.202;8.698;2023-03-02T06:13:07;-1.20;1.00
4813;DHT22;2420;51.202;8.698;2023-03-02T06:15:33;-1.40;1.00
4813;DHT22;2420;51.202;8.698;2023-03-02T06:17:59;-1.20;1.00
4813;DHT22;2420;51.202;8.698;2023-03-02T06:20:24;-1.30;1.00
4813;DHT22;2420;51.202;8.698;2023-03-02T06:22:50;-1.30;1.00
4813;DHT22;2420;51.202;8.698;2023-03-02T06:25:18;-1.40;1.00
4813;DHT22;2420;51.202;8.698;2023-03-02T06:27:44;-1.20;1.00
4813;DHT22;2420;51.202;8.698;2023-03-02T06:30:14;-1.30;1.00
4813;DHT22;2420;51.202;8.698;2023-03-02T06:32:41;-1.40;1.00
4813;DHT22;2420;51.202;8.698;2023-03-02T06:35:07;-1.30;1.00
4813;DHT22;2420;51.202;8.698;2023-03-02T06:37:33;-1.20;1.00
4813;DHT22;2420;51.202;8.698;2023-03-02T06:39:59;-1.40;1.00
4813;DHT22;2420;51.202;8.698;2023-03-02T06:42:26;-1.40;1.00
4813;DHT22;2420;51.202;8.698;2023-03-02T06:44:54;-1.30;1.00
4813;DHT22;2420;51.202;8.698;2023-03-02T06:47:21;-1.40;1.00
4813;DHT22;2420;51.202;8.698;2023-03-02T06:49:47;-1.30;1.00
4813;DHT22;2420;51.202;8.698;2023-03-02T06:52:13;-1.40;1.00
4813;DHT22;2420;51.202;8.698;2023-03-02T06:54:39;-1.20;1.00
4813;DHT22;2420;51.202;8.698;2023-03-02T06:57:06;-1.40;1.00
4813;DHT22;2420;51.202;8.698;2023-03-02T06:59:31;-1.00;1.00
4813;DHT22;2420;51.202;8.698;2023-03-02T07:01:57;-1.10;1.00
4813;DHT22;2420;51.202;8.698;2023-03-02T07:04:22;-1.10;1.00
4813;DHT22;2420;51.202;8.698;2023-03-02T07:06:48;-1.20;1.00
4813;DHT22;2420;51.202;8.698;2023-03-02T07:09:14;-1.00;1.00
4813;DHT22;2420;51.202;8.698;2023-03-02T07:11:40;-0.80;1.00
4813;DHT22;2420;51.202;8.698;2023-03-02T07:14:05;-0.80;1.00
4813;DHT22;2420;51.202;8.698;2023-03-02T07:16:32;-0.70;1.00
4813;DHT22;2420;51.202;8.698;2023-03-02T07:18:58;-0.60;1.00
4813;DHT22;2420;51.202;8.698;2023-03-02T07:21:23;-0.40;1.00
4813;DHT22;2420;51.202;8.698;2023-03-02T07:23:49;-0.50;1.00
4813;DHT22;2420;51.202;8.698;2023-03-02T07:26:14;-0.50;1.00
4813;DHT22;2420;51.202;8.698;2023-03-02T07:28:41;-0.30;1.00
4813;DHT22;2420;51.202;8.698;2023-03-02T07:31:08;-0.30;1.00
4813;DHT22;2420;51.202;8.698;2023-03-02T07:33:35;-0.20;1.00
4813;DHT22;2420;51.202;8.698;2023-03-02T07:36:01;-0.20;1.00
4813;DHT22;2420;51.202;8.698;2023-03-02T07:38:26;-0.10;1.00
4813;DHT22;2420;51.202;8.698;2023-03-02T07:40:55;0.20;1.00
4813;DHT22;2420;51.202;8.698;2023-03-02T07:43:20;0.10;1.00
4813;DHT22;2420;51.202;8.698;2023-03-02T07:45:48;0.10;1.00
4813;DHT22;2420;51.202;8.698;2023-03-02T07:48:13;0.20;1.00
4813;DHT22;2420;51.202;8.698;2023-03-02T07:50:39;0.50;1.00
4813;DHT22;2420;51.202;8.698;2023-03-02T07:53:05;0.30;1.00
4813;DHT22;2420;51.202;8.698;2023-03-02T07:55:30;0.30;1.00
4813;DHT22;2420;51.202;8.698;2023-03-02T07:57:56;0.40;1.00
4813;DHT22;2420;51.202;8.698;2023-03-02T08:00:21;0.80;1.00
4813;DHT22;2420;51.202;8.698;2023-03-02T08:02:47;0.80;1.00
4813;DHT22;2420;51.202;8.698;2023-03-02T08:05:13;0.70;1.00
4813;DHT22;2420;51.202;8.698;2023-03-02T08:07:40;0.80;1.00
4813;DHT22;2420;51.202;8.698;2023-03-02T08:10:07;0.80;1.00
4813;DHT22;2420;51.202;8.698;2023-03-02T08:12:33;0.90;1.00
4813;DHT22;2420;51.202;8.698;2023-03-02T08:14:58;0.80;1.00
4813;DHT22;2420;51.202;8.698;2023-03-02T08:17:24;1.10;1.00
4813;DHT22;2420;51.202;8.698;2023-03-02T08:19:49;1.30;1.00
4813;DHT22;2420;51.202;8.698;2023-03-02T08:22:15;1.30;1.00
4813;DHT22;2420;51.202;8.698;2023-03-02T08:24:40;1.20;1.00
4813;DHT22;2420;51.202;8.698;2023-03-02T08:27:08;1.30;1.00
4813;DHT22;2420;51.202;8.698;2023-03-02T08:29:36;1.50;1.00
4813;DHT22;2420;51.202;8.698;2023-03-02T08:32:01;1.50;1.00
4813;DHT22;2420;51.202;8.698;2023-03-02T08:34:27;1.70;1.00
4813;DHT22;2420;51.202;8.698;2023-03-02T08:36:52;1.60;1.00
4813;DHT22;2420;51.202;8.698;2023-03-02T08:39:18;1.60;1.00
4813;DHT22;2420;51.202;8.698;2023-03-02T08:41:49;1.90;1.00
4813;DHT22;2420;51.202;8.698;2023-03-02T08:44:15;1.90;1.00
4813;DHT22;2420;51.202;8.698;2023-03-02T08:46:42;1.90;1.00
4813;DHT22;2420;51.202;8.698;2023-03-02T08:49:07;2.10;1.00
4813;DHT22;2420;51.202;8.698;2023-03-02T08:51:33;2.30;1.00
4813;DHT22;2420;51.202;8.698;2023-03-02T08:53:58;2.00;1.00
4813;DHT22;2420;51.202;8.698;2023-03-02T08:56:27;2.30;1.00
4813;DHT22;2420;51.202;8.698;2023-03-02T08:58:54;2.10;1.00
4813;DHT22;2420;51.202;8.698;2023-03-02T09:01:22;2.10;1.00
4813;DHT22;2420;51.202;8.698;2023-03-02T09:03:48;2.10;1.00
4813;DHT22;2420;51.202;8.698;2023-03-02T09:06:14;2.30;1.00
4813;DHT22;2420;51.202;8.698;2023-03-02T09:08:41;2.30;1.00
4813;DHT22;2420;51.202;8.698;2023-03-02T09:11:07;2.60;1.00
4813;DHT22;2420;51.202;8.698;2023-03-02T09:13:33;2.50;1.00
4813;DHT22;2420;51.202;8.698;2023-03-02T09:15:58;2.60;1.00
4813;DHT22;2420;51.202;8.698;2023-03-02T09:18:25;2.70;1.00
4813;DHT22;2420;51.202;8.698;2023-03-02T09:20:52;2.80;1.00
4813;DHT22;2420;51.202;8.698;2023-03-02T09:23:18;2.90;1.00
4813;DHT22;2420;51.202;8.698;2023-03-02T09:25:45;2.80;1.00
4813;DHT22;2420;51.202;8.698;2023-03-02T09:28:12;2.70;1.00
4813;DHT22;2420;51.202;8.698;2023-03-02T09:30:37;3.00;1.00
4813;DHT22;2420;51.202;8.698;2023-03-02T09:33:03;3.10;1.00
4813;DHT22;2420;51.202;8.698;2023-03-02T09:35:29;3.00;1.00
4813;DHT22;2420;51.202;8.698;2023-03-02T09:38:00;2.90;1.00
4813;DHT22;2420;51.202;8.698;2023-03-02T09:40:26;3.20;1.00
4813;DHT22;2420;51.202;8.698;2023-03-02T09:42:59;3.30;1.00
4813;DHT22;2420;51.202;8.698;2023-03-02T09:45:49;3.10;1.00
4813;DHT22;2420;51.202;8.698;2023-03-02T09:51:24;3.20;1.00
4813;DHT22;2420;51.202;8.698;2023-03-02T09:53:59;3.50;1.00
4813;DHT22;2420;51.202;8.698;2023-03-02T09:56:26;3.50;1.00
4813;DHT22;2420;51.202;8.698;2023-03-02T09:59:44;3.40;1.00
4813;DHT22;2420;51.202;8.698;2023-03-02T10:04:50;3.60;1.00
4813;DHT22;2420;51.202;8.698;2023-03-02T10:09:46;3.70;1.00
4813;DHT22;2420;51.202;8.698;2023-03-02T10:15:02;3.90;1.00
4813;DHT22;2420;51.202;8.698;2023-03-02T10:17:55;3.90;1.00
4813;DHT22;2420;51.202;8.698;2023-03-02T10:20:37;3.90;1.00
4813;DHT22;2420;51.202;8.698;2023-03-02T10:23:16;3.90;1.00
4813;DHT22;2420;51.202;8.698;2023-03-02T10:25:51;3.90;1.00
4813;DHT22;2420;51.202;8.698;2023-03-02T10:28:22;4.00;1.00
4813;DHT22;2420;51.202;8.698;2023-03-02T10:30:58;4.00;1.00
4813;DHT22;2420;51.202;8.698;2023-03-02T10:33:25;4.20;1.00
4813;DHT22;2420;51.202;8.698;2023-03-02T10:35:55;4.30;1.00
4813;DHT22;2420;51.202;8.698;2023-03-02T10:38:22;4.30;1.00
4813;DHT22;2420;51.202;8.698;2023-03-02T10:43:44;4.60;1.00
4813;DHT22;2420;51.202;8.698;2023-03-02T10:46:11;4.60;1.00
4813;DHT22;2420;51.202;8.698;2023-03-02T10:48:49;4.70;1.00
4813;DHT22;2420;51.202;8.698;2023-03-02T10:51:29;4.80;1.00
4813;DHT22;2420;51.202;8.698;2023-03-02T10:54:03;4.60;1.00
4813;DHT22;2420;51.202;8.698;2023-03-02T10:56:29;4.80;1.00
4813;DHT22;2420;51.202;8.698;2023-03-02T10:58:55;4.80;1.00
4813;DHT22;2420;51.202;8.698;2023-03-02T11:01:28;4.90;1.00
4813;DHT22;2420;51.202;8.698;2023-03-02T11:03:59;5.00;1.00
4813;DHT22;2420;51.202;8.698;2023-03-02T11:06:25;5.20;1.00
4813;DHT22;2420;51.202;8.698;2023-03-02T11:08:59;5.10;1.00
4813;DHT22;2420;51.202;8.698;2023-03-02T11:11:25;5.50;1.00
4813;DHT22;2420;51.202;8.698;2023-03-02T11:13:51;5.40;1.00
4813;DHT22;2420;51.202;8.698;2023-03-02T11:18:47;5.40;1.00
4813;DHT22;2420;51.202;8.698;2023-03-02T11:21:22;5.50;1.00
4813;DHT22;2420;51.202;8.698;2023-03-02T11:24:07;5.40;1.00
4813;DHT22;2420;51.202;8.698;2023-03-02T11:26:38;5.60;1.00
4813;DHT22;2420;51.202;8.698;2023-03-02T11:34:45;6.10;1.00
4813;DHT22;2420;51.202;8.698;2023-03-02T11:37:27;6.10;1.00
4813;DHT22;2420;51.202;8.698;2023-03-02T11:40:04;6.10;1.00
4813;DHT22;2420;51.202;8.698;2023-03-02T11:42:35;6.10;1.00
4813;DHT22;2420;51.202;8.698;2023-03-02T11:45:25;6.10;1.00
4813;DHT22;2420;51.202;8.698;2023-03-02T11:50:36;6.10;1.00
4813;DHT22;2420;51.202;8.698;2023-03-02T11:53:06;6.10;1.00
4813;DHT22;2420;51.202;8.698;2023-03-02T11:55:41;6.20;1.00
4813;DHT22;2420;51.202;8.698;2023-03-02T11:58:15;6.20;1.00
4813;DHT22;2420;51.202;8.698;2023-03-02T12:00:42;6.30;1.00
4813;DHT22;2420;51.202;8.698;2023-03-02T12:05:45;6.30;1.00
4813;DHT22;2420;51.202;8.698;2023-03-02T12:10:42;6.40;1.00
4813;DHT22;2420;51.202;8.698;2023-03-02T12:13:17;6.40;1.00
4813;DHT22;2420;51.202;8.698;2023-03-02T12:15:46;6.50;1.00
4813;DHT22;2420;51.202;8.698;2023-03-02T12:18:44;6.50;1.00
4813;DHT22;2420;51.202;8.698;2023-03-02T12:24:00;6.60;1.00
4813;DHT22;2420;51.202;8.698;2023-03-02T12:26:36;6.70;1.00
4813;DHT22;2420;51.202;8.698;2023-03-02T12:31:51;6.60;1.00
4813;DHT22;2420;51.202;8.698;2023-03-02T12:34:25;6.70;1.00
4813;DHT22;2420;51.202;8.698;2023-03-02T12:36:58;6.70;1.00
4813;DHT22;2420;51.202;8.698;2023-03-02T12:42:42;6.90;1.00
4813;DHT22;2420;51.202;8.698;2023-03-02T12:45:33;7.00;1.00
4813;DHT22;2420;51.202;8.698;2023-03-02T12:48:29;7.00;1.00
4813;DHT22;2420;51.202;8.698;2023-03-02T12:51:00;7.00;1.00
4813;DHT22;2420;51.202;8.698;2023-03-02T12:53:26;7.00;1.00
4813;DHT22;2420;51.202;8.698;2023-03-02T12:55:52;7.10;1.00
4813;DHT22;2420;51.202;8.698;2023-03-02T12:58:26;7.10;1.00
4813;DHT22;2420;51.202;8.698;2023-03-02T13:01:00;7.10;1.00
4813;DHT22;2420;51.202;8.698;2023-03-02T13:03:28;7.10;1.00
4813;DHT22;2420;51.202;8.698;2023-03-02T13:06:12;7.20;1.00
4813;DHT22;2420;51.202;8.698;2023-03-02T13:08:38;7.30;1.00
4813;DHT22;2420;51.202;8.698;2023-03-02T13:11:06;7.20;1.00
4813;DHT22;2420;51.202;8.698;2023-03-02T13:13:39;7.20;1.00
4813;DHT22;2420;51.202;8.698;2023-03-02T13:16:24;7.10;1.00
4813;DHT22;2420;51.202;8.698;2023-03-02T13:18:53;7.20;1.00
4813;DHT22;2420;51.202;8.698;2023-03-02T13:21:27;7.20;1.00
4813;DHT22;2420;51.202;8.698;2023-03-02T13:23:53;7.20;1.00
4813;DHT22;2420;51.202;8.698;2023-03-02T13:26:39;7.20;1.00
4813;DHT22;2420;51.202;8.698;2023-03-02T13:29:26;7.20;1.00
4813;DHT22;2420;51.202;8.698;2023-03-02T13:31:52;7.10;1.00
4813;DHT22;2420;51.202;8.698;2023-03-02T13:34:28;7.20;1.00
4813;DHT22;2420;51.202;8.698;2023-03-02T13:36:56;7.20;1.00
4813;DHT22;2420;51.202;8.698;2023-03-02T13:39:27;7.30;1.00
4813;DHT22;2420;51.202;8.698;2023-03-02T13:41:58;7.20;1.00
4813;DHT22;2420;51.202;8.698;2023-03-02T13:44:28;7.30;1.00
4813;DHT22;2420;51.202;8.698;2023-03-02T13:46:54;7.30;1.00
4813;DHT22;2420;51.202;8.698;2023-03-02T13:49:31;7.40;1.00
4813;DHT22;2420;51.202;8.698;2023-03-02T13:52:02;7.40;1.00
4813;DHT22;2420;51.202;8.698;2023-03-02T13:54:29;7.40;1.00
4813;DHT22;2420;51.202;8.698;2023-03-02T13:56:57;7.40;1.00
4813;DHT22;2420;51.202;8.698;2023-03-02T13:59:23;7.40;1.00
4813;DHT22;2420;51.202;8.698;2023-03-02T14:01:49;7.30;1.00
4813;DHT22;2420;51.202;8.698;2023-03-02T14:04:17;7.30;1.00
4813;DHT22;2420;51.202;8.698;2023-03-02T14:06:46;7.30;1.00
4813;DHT22;2420;51.202;8.698;2023-03-02T14:09:12;7.40;1.00
4813;DHT22;2420;51.202;8.698;2023-03-02T14:11:41;7.50;1.00
4813;DHT22;2420;51.202;8.698;2023-03-02T14:14:15;7.40;1.00
4813;DHT22;2420;51.202;8.698;2023-03-02T14:16:42;7.40;1.00
4813;DHT22;2420;51.202;8.698;2023-03-02T14:19:11;7.40;1.00
4813;DHT22;2420;51.202;8.698;2023-03-02T14:21:38;7.40;1.00
4813;DHT22;2420;51.202;8.698;2023-03-02T14:24:04;7.40;1.00
4813;DHT22;2420;51.202;8.698;2023-03-02T14:26:37;7.30;1.00
4813;DHT22;2420;51.202;8.698;2023-03-02T14:29:22;7.30;1.00
4813;DHT22;2420;51.202;8.698;2023-03-02T14:31:49;7.40;1.00
4813;DHT22;2420;51.202;8.698;2023-03-02T14:34:16;7.40;1.00
4813;DHT22;2420;51.202;8.698;2023-03-02T14:36:44;7.40;1.00
4813;DHT22;2420;51.202;8.698;2023-03-02T14:39:36;7.30;1.00
4813;DHT22;2420;51.202;8.698;2023-03-02T14:42:03;7.40;1.00
4813;DHT22;2420;51.202;8.698;2023-03-02T14:44:29;7.40;1.00
4813;DHT22;2420;51.202;8.698;2023-03-02T14:46:54;7.30;1.00
4813;DHT22;2420;51.202;8.698;2023-03-02T14:49:21;7.40;1.00
4813;DHT22;2420;51.202;8.698;2023-03-02T14:52:04;7.40;1.00
4813;DHT22;2420;51.202;8.698;2023-03-02T14:54:47;7.40;1.00
4813;DHT22;2420;51.202;8.698;2023-03-02T14:57:21;7.40;1.00
4813;DHT22;2420;51.202;8.698;2023-03-02T14:59:48;7.50;1.00
4813;DHT22;2420;51.202;8.698;2023-03-02T15:02:14;7.40;1.00
4813;DHT22;2420;51.202;8.698;2023-03-02T15:04:40;7.40;1.00
4813;DHT22;2420;51.202;8.698;2023-03-02T15:07:10;7.40;1.00
4813;DHT22;2420;51.202;8.698;2023-03-02T15:09:36;7.40;1.00
4813;DHT22;2420;51.202;8.698;2023-03-02T15:12:01;7.40;1.00
4813;DHT22;2420;51.202;8.698;2023-03-02T15:14:27;7.30;1.00
4813;DHT22;2420;51.202;8.698;2023-03-02T15:16:55;7.30;1.00
4813;DHT22;2420;51.202;8.698;2023-03-02T15:19:21;7.40;1.00
4813;DHT22;2420;51.202;8.698;2023-03-02T15:21:46;7.40;1.00
4813;DHT22;2420;51.202;8.698;2023-03-02T15:24:12;7.30;1.00
4813;DHT22;2420;51.202;8.698;2023-03-02T15:26:38;7.30;1.00
4813;DHT22;2420;51.202;8.698;2023-03-02T15:29:05;7.20;1.00
4813;DHT22;2420;51.202;8.698;2023-03-02T15:31:31;7.20;1.00
4813;DHT22;2420;51.202;8.698;2023-03-02T15:33:57;7.20;1.00
4813;DHT22;2420;51.202;8.698;2023-03-02T15:36:23;7.20;1.00
4813;DHT22;2420;51.202;8.698;2023-03-02T15:38:51;7.20;1.00
4813;DHT22;2420;51.202;8.698;2023-03-02T15:41:17;7.10;1.00
4813;DHT22;2420;51.202;8.698;2023-03-02T15:43:43;7.10;1.00
4813;DHT22;2420;51.202;8.698;2023-03-02T15:46:10;7.10;1.00
4813;DHT22;2420;51.202;8.698;2023-03-02T15:48:36;7.10;1.00
4813;DHT22;2420;51.202;8.698;2023-03-02T15:51:04;7.10;1.00
4813;DHT22;2420;51.202;8.698;2023-03-02T15:53:31;7.10;1.00
4813;DHT22;2420;51.202;8.698;2023-03-02T15:55:57;7.00;1.00
4813;DHT22;2420;51.202;8.698;2023-03-02T15:58:23;6.90;1.00
4813;DHT22;2420;51.202;8.698;2023-03-02T16:00:49;6.90;1.00
4813;DHT22;2420;51.202;8.698;2023-03-02T16:03:14;6.50;1.00
4813;DHT22;2420;51.202;8.698;2023-03-02T16:05:40;6.80;1.00
4813;DHT22;2420;51.202;8.698;2023-03-02T16:08:07;6.70;1.00
4813;DHT22;2420;51.202;8.698;2023-03-02T16:10:33;6.70;1.00
4813;DHT22;2420;51.202;8.698;2023-03-02T16:13:04;6.70;1.00
4813;DHT22;2420;51.202;8.698;2023-03-02T16:15:35;6.70;1.00
4813;DHT22;2420;51.202;8.698;2023-03-02T16:18:05;6.60;1.00
4813;DHT22;2420;51.202;8.698;2023-03-02T16:20:33;6.20;1.00
4813;DHT22;2420;51.202;8.698;2023-03-02T16:22:59;6.50;1.00
4813;DHT22;2420;51.202;8.698;2023-03-02T16:25:26;6.40;1.00
4813;DHT22;2420;51.202;8.698;2023-03-02T16:27:53;6.40;1.00
4813;DHT22;2420;51.202;8.698;2023-03-02T16:30:18;6.30;1.00
4813;DHT22;2420;51.202;8.698;2023-03-02T16:32:44;6.40;1.00
4813;DHT22;2420;51.202;8.698;2023-03-02T16:35:10;6.10;1.00
4813;DHT22;2420;51.202;8.698;2023-03-02T16:37:35;6.00;1.00
4813;DHT22;2420;51.202;8.698;2023-03-02T16:40:01;6.10;1.00
4813;DHT22;2420;51.202;8.698;2023-03-02T16:42:26;6.00;1.00
4813;DHT22;2420;51.202;8.698;2023-03-02T16:44:54;5.90;1.00
4813;DHT22;2420;51.202;8.698;2023-03-02T16:47:20;5.80;1.00
4813;DHT22;2420;51.202;8.698;2023-03-02T16:49:45;5.70;1.00
4813;DHT22;2420;51.202;8.698;2023-03-02T16:52:11;5.30;1.00
4813;DHT22;2420;51.202;8.698;2023-03-02T16:54:36;5.50;1.00
4813;DHT22;2420;51.202;8.698;2023-03-02T16:57:02;5.30;1.00
4813;DHT22;2420;51.202;8.698;2023-03-02T16:59:27;5.40;1.00
4813;DHT22;2420;51.202;8.698;2023-03-02T17:01:53;5.30;1.00
4813;DHT22;2420;51.202;8.698;2023-03-02T17:04:18;5.20;1.00
4813;DHT22;2420;51.202;8.698;2023-03-02T17:06:46;5.10;1.00
4813;DHT22;2420;51.202;8.698;2023-03-02T17:09:11;5.00;1.00
4813;DHT22;2420;51.202;8.698;2023-03-02T17:11:37;4.90;1.00
4813;DHT22;2420;51.202;8.698;2023-03-02T17:14:03;4.80;1.00
4813;DHT22;2420;51.202;8.698;2023-03-02T17:16:28;4.80;1.00
4813;DHT22;2420;51.202;8.698;2023-03-02T17:18:56;4.80;1.00
4813;DHT22;2420;51.202;8.698;2023-03-02T17:21:22;4.80;1.00